createdAt,value
2022-11-22T00:00:48.772Z,4.19
2022-11-22T00:03:18.860Z,5.77
2022-11-22T00:05:46.680Z,7.40
2022-11-22T00:08:14.476Z,8.15
2022-11-22T00:10:42.326Z,7.50
2022-11-22T00:13:10.075Z,6.67
2022-11-22T00:15:37.860Z,6.07
2022-11-22T00:18:05.925Z,5.62
2022-11-22T00:20:34.364Z,5.29
2022-11-22T00:23:02.165Z,5.06
2022-11-22T00:25:29.960Z,4.81
2022-11-22T00:27:57.753Z,4.62
2022-11-22T00:30:25.507Z,4.47
2022-11-22T00:32:53.311Z,4.33
2022-11-22T00:35:21.094Z,4.42
2022-11-22T00:37:48.841Z,5.71
2022-11-22T00:40:16.725Z,7.23
2022-11-22T00:42:44.532Z,8.01
2022-11-22T00:45:12.394Z,7.49
2022-11-22T00:47:40.239Z,6.77
2022-11-22T00:50:09.665Z,6.18
2022-11-22T00:52:37.425Z,5.72
2022-11-22T00:55:05.551Z,5.35
2022-11-22T00:57:33.317Z,5.07
2022-11-22T01:00:01.061Z,4.85
2022-11-22T01:02:28.898Z,4.61
2022-11-22T01:04:56.621Z,4.62
2022-11-22T01:07:24.524Z,5.96
2022-11-22T01:09:52.740Z,7.43
2022-11-22T01:12:20.861Z,8.13
2022-11-22T01:14:48.723Z,7.53
2022-11-22T01:17:17.315Z,6.76
2022-11-22T01:19:45.890Z,6.18
2022-11-22T01:22:13.640Z,5.74
2022-11-22T01:24:41.383Z,5.37
2022-11-22T01:27:09.107Z,5.06
2022-11-22T01:29:37.009Z,4.78
2022-11-22T01:32:05.257Z,4.93
2022-11-22T01:34:33.072Z,6.47
2022-11-22T01:37:00.787Z,7.87
2022-11-22T01:39:28.976Z,8.05
2022-11-22T01:41:57.132Z,7.24
2022-11-22T01:44:27.486Z,6.53
2022-11-22T01:47:05.578Z,6.01
2022-11-22T01:49:42.010Z,5.61
2022-11-22T01:52:15.656Z,5.30
2022-11-22T01:54:46.116Z,5.03
2022-11-22T01:57:17.533Z,4.80
2022-11-22T01:59:51.373Z,4.93
2022-11-22T02:02:19.118Z,6.35
2022-11-22T02:04:48.269Z,7.69
2022-11-22T02:07:23.115Z,8.27
2022-11-22T02:09:52.746Z,7.54
2022-11-22T02:12:29.339Z,6.75
2022-11-22T02:14:57.498Z,6.10
2022-11-22T02:17:26.633Z,5.58
2022-11-22T02:19:55.121Z,5.20
2022-11-22T02:22:53.636Z,4.86
2022-11-22T02:25:33.305Z,5.23
2022-11-22T02:28:01.425Z,6.80
2022-11-22T02:30:29.316Z,7.78
2022-11-22T02:32:57.098Z,7.57
2022-11-22T02:35:26.729Z,6.65
2022-11-22T02:38:00.263Z,5.88
2022-11-22T02:40:29.639Z,5.33
2022-11-22T02:43:03.494Z,4.94
2022-11-22T02:45:31.227Z,5.08
2022-11-22T02:48:13.727Z,6.65
2022-11-22T02:50:41.393Z,8.15
2022-11-22T02:53:09.866Z,8.49
2022-11-22T02:55:38.003Z,7.55
2022-11-22T02:58:06.432Z,6.59
2022-11-22T03:00:35.910Z,5.83
2022-11-22T03:03:04.200Z,5.24
2022-11-22T03:05:31.960Z,5.08
2022-11-22T03:07:59.842Z,6.33
2022-11-22T03:10:27.631Z,7.44
2022-11-22T03:12:57.604Z,7.97
2022-11-22T03:15:25.720Z,7.19
2022-11-22T03:18:01.144Z,6.31
2022-11-22T03:20:29.577Z,5.58
2022-11-22T03:22:57.323Z,5.00
2022-11-22T03:25:25.409Z,4.90
2022-11-22T03:27:53.689Z,6.26
2022-11-22T03:30:21.532Z,7.55
2022-11-22T03:32:49.282Z,8.12
2022-11-22T03:35:17.188Z,7.37
2022-11-22T03:37:44.940Z,6.41
2022-11-22T03:40:13.361Z,5.61
2022-11-22T03:42:41.250Z,5.02
2022-11-22T03:45:09.469Z,4.58
2022-11-22T03:47:37.244Z,4.67
2022-11-22T03:50:05.946Z,6.07
2022-11-22T03:52:33.661Z,7.56
2022-11-22T03:55:01.512Z,8.06
2022-11-22T03:57:29.548Z,7.14
2022-11-22T03:59:57.340Z,6.20
2022-11-22T04:02:25.082Z,5.43
2022-11-22T04:04:52.833Z,4.86
2022-11-22T04:07:20.578Z,4.73
2022-11-22T04:09:48.461Z,6.01
2022-11-22T04:12:16.128Z,7.27
2022-11-22T04:15:02.724Z,7.57
2022-11-22T04:17:45.892Z,6.63
2022-11-22T04:20:46.725Z,5.70
2022-11-22T04:23:19.431Z,4.95
2022-11-22T04:25:52.417Z,4.85
2022-11-22T04:28:35.332Z,6.17
2022-11-22T04:31:35.852Z,7.70
2022-11-22T04:34:03.539Z,7.67
2022-11-22T04:36:31.660Z,6.72
2022-11-22T04:38:59.547Z,5.88
2022-11-22T04:41:27.235Z,5.22
2022-11-22T04:44:15.193Z,4.65
2022-11-22T04:46:42.951Z,4.59
2022-11-22T04:49:10.673Z,5.83
2022-11-22T04:51:57.327Z,7.02
2022-11-22T04:54:25.172Z,7.70
2022-11-22T04:56:53.025Z,6.86
2022-11-22T04:59:21.143Z,5.91
2022-11-22T05:01:48.832Z,5.17
2022-11-22T05:04:16.562Z,4.64
2022-11-22T05:06:44.459Z,4.65
2022-11-22T05:09:12.211Z,6.11
2022-11-22T05:11:39.962Z,7.37
2022-11-22T05:14:09.059Z,7.93
2022-11-22T05:16:36.788Z,7.19
2022-11-22T05:19:05.152Z,6.24
2022-11-22T05:21:35.665Z,5.48
2022-11-22T05:24:04.105Z,4.94
2022-11-22T05:26:35.659Z,5.56
2022-11-22T05:29:07.979Z,6.77
2022-11-22T05:31:36.082Z,7.79
2022-11-22T05:34:04.112Z,8.20
2022-11-22T05:36:33.609Z,7.53
2022-11-22T05:39:02.190Z,6.58
2022-11-22T05:41:30.159Z,5.73
2022-11-22T05:43:57.969Z,5.16
2022-11-22T05:46:30.318Z,4.75
2022-11-22T05:48:58.268Z,4.45
2022-11-22T05:51:33.947Z,4.22
2022-11-22T05:54:03.363Z,4.48
2022-11-22T05:56:31.174Z,5.73
2022-11-22T05:58:59.034Z,6.99
2022-11-22T06:01:26.818Z,7.95
2022-11-22T06:03:54.729Z,7.60
2022-11-22T06:06:22.916Z,6.64
2022-11-22T06:08:51.671Z,5.87
2022-11-22T06:11:22.219Z,5.35
2022-11-22T06:13:52.536Z,5.15
2022-11-22T06:16:20.946Z,6.25
2022-11-22T06:18:49.058Z,7.59
2022-11-22T06:21:19.622Z,8.19
2022-11-22T06:23:47.388Z,7.45
2022-11-22T06:26:17.401Z,6.52
2022-11-22T06:28:46.172Z,5.83
2022-11-22T06:31:15.969Z,5.45
2022-11-22T06:33:44.379Z,6.45
2022-11-22T06:36:20.136Z,7.72
2022-11-22T06:38:48.480Z,8.39
2022-11-22T06:41:18.583Z,7.70
2022-11-22T06:43:49.207Z,6.82
2022-11-22T06:46:20.820Z,6.09
2022-11-22T06:48:49.096Z,5.59
2022-11-22T06:51:24.868Z,5.42
2022-11-22T06:53:55.311Z,6.68
2022-11-22T06:56:28.953Z,8.12
2022-11-22T06:58:57.094Z,8.64
2022-11-22T07:01:29.100Z,7.84
2022-11-22T07:03:58.451Z,7.00
2022-11-22T07:06:31.691Z,6.38
2022-11-22T07:09:01.160Z,5.88
2022-11-22T07:11:31.333Z,5.50
2022-11-22T07:14:06.917Z,5.55
2022-11-22T07:16:37.663Z,6.92
2022-11-22T07:19:06.052Z,8.21
2022-11-22T07:21:36.584Z,8.69
2022-11-22T07:24:06.343Z,7.90
2022-11-22T07:26:34.348Z,6.95
2022-11-22T07:29:02.093Z,6.24
2022-11-22T07:31:29.938Z,5.71
2022-11-22T07:33:58.292Z,5.62
2022-11-22T07:36:28.762Z,6.75
2022-11-22T07:38:56.642Z,8.06
2022-11-22T07:41:24.342Z,8.90
2022-11-22T07:43:53.128Z,9.15
2022-11-22T07:46:22.971Z,8.29
2022-11-22T07:48:51.100Z,7.36
2022-11-22T07:51:19.149Z,6.65
2022-11-22T07:53:47.207Z,6.14
2022-11-22T07:56:15.333Z,5.97
2022-11-22T07:58:43.231Z,7.06
2022-11-22T08:01:14.347Z,8.37
2022-11-22T08:03:42.944Z,8.52
2022-11-22T08:06:11.921Z,7.58
2022-11-22T08:08:39.789Z,6.66
2022-11-22T08:11:08.000Z,5.92
2022-11-22T08:13:36.144Z,5.40
2022-11-22T08:16:07.534Z,5.35
2022-11-22T08:18:36.657Z,6.71
2022-11-22T08:21:06.504Z,8.10
2022-11-22T08:23:34.514Z,8.60
2022-11-22T08:26:02.333Z,7.92
2022-11-22T08:28:30.358Z,7.10
2022-11-22T08:31:03.879Z,6.46
2022-11-22T08:33:31.704Z,5.99
2022-11-22T08:35:59.532Z,6.44
2022-11-22T08:38:27.739Z,7.75
2022-11-22T08:40:55.915Z,8.77
2022-11-22T08:43:24.209Z,9.11
2022-11-22T08:45:59.833Z,8.28
2022-11-22T08:48:28.859Z,7.42
2022-11-22T08:50:59.906Z,6.82
2022-11-22T08:53:29.761Z,6.34
2022-11-22T08:55:59.771Z,6.25
2022-11-22T08:58:29.986Z,7.32
2022-11-22T09:00:57.886Z,8.36
2022-11-22T09:03:25.669Z,8.86
2022-11-22T09:08:47.234Z,7.33
2022-11-22T09:11:19.936Z,6.74
2022-11-22T09:13:47.786Z,6.30
2022-11-22T09:16:18.758Z,6.27
2022-11-22T09:18:47.673Z,7.46
2022-11-22T09:21:18.246Z,8.72
2022-11-22T09:23:47.669Z,9.38
2022-11-22T09:26:17.797Z,8.76
2022-11-22T09:28:46.218Z,7.96
2022-11-22T09:31:16.540Z,7.34
2022-11-22T09:33:47.206Z,6.80
2022-11-22T09:36:17.460Z,6.68
2022-11-22T09:38:45.494Z,7.90
2022-11-22T09:41:16.101Z,9.35
2022-11-22T09:44:10.993Z,9.85
2022-11-22T09:47:11.774Z,8.82
2022-11-22T09:49:48.411Z,7.83
2022-11-22T09:52:32.517Z,7.24
2022-11-22T09:55:11.850Z,6.77
2022-11-22T09:57:50.119Z,6.77
2022-11-22T10:00:21.768Z,8.31
2022-11-22T10:03:00.669Z,9.64
2022-11-22T10:05:33.833Z,10.04
2022-11-22T10:08:13.322Z,9.13
2022-11-22T10:10:43.169Z,8.22
2022-11-22T10:13:17.370Z,7.63
2022-11-22T10:16:03.833Z,7.17
2022-11-22T10:18:38.283Z,6.92
2022-11-22T10:21:10.925Z,6.85
2022-11-22T10:23:39.572Z,8.08
2022-11-22T10:26:25.720Z,9.48
2022-11-22T10:29:12.480Z,10.05
2022-11-22T10:31:45.644Z,9.16
2022-11-22T10:34:16.017Z,8.27
2022-11-22T10:37:21.452Z,7.66
2022-11-22T10:40:05.427Z,7.11
2022-11-22T10:42:52.173Z,6.73
2022-11-22T10:45:25.995Z,6.45
2022-11-22T10:48:10.248Z,7.31
2022-11-22T10:50:56.828Z,8.88
2022-11-22T10:53:39.668Z,9.59
2022-11-22T10:56:28.870Z,8.88
2022-11-22T10:59:35.892Z,8.03
2022-11-22T11:02:16.509Z,7.44
2022-11-22T11:04:44.793Z,7.08
2022-11-22T11:07:19.474Z,6.82
2022-11-22T11:12:44.234Z,6.43
2022-11-22T11:15:45.317Z,6.57
2022-11-22T11:18:48.196Z,8.08
2022-11-22T11:21:16.240Z,9.54
2022-11-22T11:23:43.999Z,10.12
2022-11-22T11:26:22.648Z,9.46
2022-11-22T11:28:50.464Z,8.62
2022-11-22T11:31:19.156Z,8.09
2022-11-22T11:33:47.046Z,7.71
2022-11-22T11:36:21.950Z,7.39
2022-11-22T11:38:57.305Z,7.14
2022-11-22T11:41:30.624Z,6.97
2022-11-22T11:44:00.692Z,7.64
2022-11-22T11:46:49.154Z,9.03
2022-11-22T11:49:19.397Z,9.75
2022-11-22T11:51:59.072Z,9.19
2022-11-22T11:54:45.912Z,8.46
2022-11-22T11:57:28.715Z,7.95
2022-11-22T12:00:01.780Z,7.65
2022-11-22T12:02:39.915Z,7.38
2022-11-22T12:05:14.094Z,7.12
2022-11-22T12:07:44.754Z,6.98
2022-11-22T12:10:31.341Z,6.90
2022-11-22T12:13:22.418Z,6.81
2022-11-22T12:16:12.799Z,6.65
2022-11-22T12:19:11.874Z,7.01
2022-11-22T12:25:33.781Z,9.80
2022-11-22T12:28:18.584Z,9.04
2022-11-22T12:30:51.668Z,8.39
2022-11-22T12:33:24.960Z,8.03
2022-11-22T12:35:53.925Z,7.78
2022-11-22T12:38:25.966Z,7.57
2022-11-22T12:40:55.709Z,7.40
2022-11-22T12:43:30.103Z,7.41
2022-11-22T12:46:10.128Z,8.54
2022-11-22T12:48:23.052Z,8.87
2022-11-22T12:48:51.087Z,9.95
2022-11-22T12:51:31.153Z,10.64
2022-11-22T12:54:01.264Z,9.92
2022-11-22T12:56:53.719Z,9.16
2022-11-22T12:59:41.744Z,8.45
2022-11-22T13:02:23.436Z,7.97
2022-11-22T13:04:59.920Z,7.59
2022-11-22T13:07:36.876Z,7.33
2022-11-22T13:10:15.761Z,7.12
2022-11-22T13:12:45.868Z,6.90
2022-11-22T13:15:17.190Z,7.03
2022-11-22T13:17:45.515Z,8.27
2022-11-22T13:20:19.951Z,9.36
2022-11-22T13:23:42.414Z,9.83
2022-11-22T13:26:18.573Z,8.94
2022-11-22T13:28:46.937Z,8.25
2022-11-22T13:31:17.510Z,7.82
2022-11-22T13:34:01.536Z,7.45
2022-11-22T13:36:29.370Z,7.17
2022-11-22T13:38:59.076Z,6.95
2022-11-22T13:41:26.843Z,7.07
2022-11-22T13:43:57.457Z,8.31
2022-11-22T13:46:47.287Z,9.63
2022-11-22T13:49:16.080Z,10.22
2022-11-22T13:51:51.405Z,9.53
2022-11-22T13:54:42.332Z,8.80
2022-11-22T13:57:29.372Z,8.20
2022-11-22T14:00:13.149Z,7.79
2022-11-22T14:03:18.938Z,7.44
2022-11-22T14:05:51.337Z,7.14
2022-11-22T14:08:35.306Z,6.92
2022-11-22T14:11:29.190Z,6.74
2022-11-22T14:14:07.030Z,7.01
2022-11-22T14:16:53.776Z,8.39
2022-11-22T14:19:31.920Z,9.87
2022-11-22T14:22:30.781Z,10.05
2022-11-22T14:25:15.205Z,9.11
2022-11-22T14:28:00.580Z,8.37
2022-11-22T14:30:46.760Z,7.83
2022-11-22T14:33:25.990Z,7.43
2022-11-22T14:36:06.363Z,7.09
2022-11-22T14:38:35.640Z,7.11
2022-11-22T14:41:28.348Z,8.27
2022-11-22T14:44:02.837Z,9.82
2022-11-22T14:46:55.345Z,10.52
2022-11-22T14:49:37.671Z,9.69
2022-11-22T14:52:17.291Z,8.84
2022-11-22T14:54:47.992Z,8.25
2022-11-22T14:57:19.146Z,7.87
2022-11-22T15:00:06.178Z,7.59
2022-11-22T15:02:52.170Z,7.31
2022-11-22T15:09:17.456Z,6.86
2022-11-22T15:09:18.217Z,7.07
2022-11-22T15:12:06.653Z,7.09
2022-11-22T15:59:09.043Z,7.47
2022-11-22T16:01:41.192Z,7.20
2022-11-22T16:04:35.351Z,7.23
2022-11-22T16:07:05.694Z,8.64
2022-11-22T16:09:38.049Z,10.16
2022-11-22T16:12:25.300Z,10.56
2022-11-22T16:14:53.909Z,9.68
2022-11-22T16:17:28.783Z,8.98
2022-11-22T16:20:21.964Z,8.47
2022-11-22T16:23:20.006Z,8.06
2022-11-22T16:25:49.600Z,7.76
2022-11-22T16:28:26.135Z,7.55
2022-11-22T16:31:02.059Z,7.34
2022-11-22T16:33:30.483Z,7.15
2022-11-22T16:36:00.222Z,7.30
2022-11-22T16:38:28.403Z,8.69
2022-11-22T16:40:58.118Z,10.03
2022-11-22T16:43:28.990Z,10.60
2022-11-22T16:45:57.284Z,9.97
2022-11-22T16:48:34.134Z,9.26
2022-11-22T16:51:04.965Z,8.63
2022-11-22T16:53:46.247Z,8.19
2022-11-22T16:56:19.570Z,7.86
2022-11-22T16:58:48.718Z,7.62
2022-11-22T17:01:19.519Z,7.44
2022-11-22T17:03:48.803Z,7.55
2022-11-22T17:06:18.987Z,8.72
2022-11-22T17:08:48.588Z,10.06
2022-11-22T17:11:19.184Z,10.80
2022-11-22T17:13:47.439Z,10.28
2022-11-22T17:16:17.933Z,9.57
2022-11-22T17:18:46.795Z,8.95
2022-11-22T17:21:34.231Z,8.48
2022-11-22T17:24:04.133Z,8.11
2022-11-22T17:26:32.872Z,7.88
2022-11-22T17:29:00.629Z,7.71
2022-11-22T17:31:28.823Z,7.58
2022-11-22T17:33:58.631Z,7.46
2022-11-22T17:36:31.499Z,7.37
2022-11-22T17:39:01.122Z,7.56
2022-11-22T17:41:30.835Z,8.97
2022-11-22T17:43:58.680Z,10.46
2022-11-22T17:46:28.287Z,11.14
2022-11-22T17:49:00.526Z,10.57
2022-11-22T17:51:29.396Z,9.85
2022-11-22T17:53:58.301Z,9.32
2022-11-22T17:56:27.259Z,8.91
2022-11-22T17:58:55.216Z,8.60
2022-11-22T18:01:23.881Z,8.34
2022-11-22T18:03:51.881Z,8.11
2022-11-22T18:06:23.493Z,7.90
2022-11-22T18:08:51.610Z,7.72
2022-11-22T18:11:19.416Z,7.56
2022-11-22T18:13:47.490Z,7.41
2022-11-22T18:16:17.404Z,7.57
2022-11-22T18:18:56.757Z,9.07
2022-11-22T18:21:30.805Z,10.59
2022-11-22T18:23:59.144Z,11.12
2022-11-22T18:26:42.983Z,10.48
2022-11-22T18:32:01.023Z,9.20
2022-11-22T18:34:29.429Z,8.85
2022-11-22T18:37:02.075Z,8.57
2022-11-22T18:39:37.478Z,8.33
2022-11-22T18:42:08.573Z,8.12
2022-11-22T18:44:36.320Z,7.94
2022-11-22T18:47:04.899Z,7.80
2022-11-22T18:49:33.332Z,7.66
2022-11-22T18:52:01.715Z,7.53
2022-11-22T18:54:29.821Z,7.43
2022-11-22T18:56:58.020Z,7.62
2022-11-22T18:59:25.938Z,9.12
2022-11-22T19:01:53.721Z,10.67
2022-11-22T19:04:21.586Z,11.33
2022-11-22T19:06:49.390Z,10.74
2022-11-22T19:09:17.144Z,10.03
2022-11-22T19:11:44.945Z,9.50
2022-11-22T19:14:12.711Z,9.11
2022-11-22T19:16:40.521Z,8.80
2022-11-22T19:19:10.703Z,8.50
2022-11-22T19:21:38.453Z,8.20
2022-11-22T19:24:06.348Z,7.98
2022-11-22T19:26:34.874Z,7.81
2022-11-22T19:29:04.689Z,7.65
2022-11-22T19:31:32.694Z,7.52
2022-11-22T19:34:00.509Z,7.40
2022-11-22T19:36:34.088Z,7.27
2022-11-22T19:39:04.508Z,7.47
2022-11-22T19:41:32.952Z,8.89
2022-11-22T19:44:00.904Z,10.33
2022-11-22T19:46:29.662Z,10.74
2022-11-22T19:48:58.908Z,10.07
2022-11-22T19:51:28.877Z,9.41
2022-11-22T19:54:04.551Z,8.97
2022-11-22T19:56:35.097Z,8.62
2022-11-22T19:59:05.215Z,8.36
2022-11-22T20:01:34.399Z,8.12
2022-11-22T20:04:04.869Z,7.90
2022-11-22T20:06:34.673Z,7.72
2022-11-22T20:09:11.369Z,7.55
2022-11-22T20:11:40.115Z,7.40
2022-11-22T20:14:09.398Z,7.29
2022-11-22T20:16:41.183Z,7.46
2022-11-22T20:19:10.603Z,8.90
2022-11-22T20:21:39.483Z,10.24
2022-11-22T20:24:07.746Z,10.94
2022-11-22T20:26:36.196Z,10.40
2022-11-22T20:29:07.160Z,9.71
2022-11-22T20:31:36.711Z,9.18
2022-11-22T20:34:05.102Z,8.78
2022-11-22T20:36:34.422Z,8.46
2022-11-22T20:39:08.364Z,8.21
2022-11-22T20:41:43.000Z,7.98
2022-11-22T20:44:14.222Z,7.79
2022-11-22T20:46:42.566Z,7.58
2022-11-22T20:49:10.318Z,7.37
2022-11-22T20:51:42.640Z,7.20
2022-11-22T20:54:10.287Z,7.06
2022-11-22T20:56:38.346Z,6.95
2022-11-22T20:59:06.305Z,7.11
2022-11-22T21:01:34.389Z,8.48
2022-11-22T21:04:02.479Z,9.92
2022-11-22T21:06:32.852Z,10.59
2022-11-22T21:09:00.992Z,9.99
2022-11-22T21:11:30.914Z,9.29
2022-11-22T21:13:58.840Z,8.75
2022-11-22T21:16:28.473Z,8.37
2022-11-22T21:19:01.983Z,8.07
2022-11-22T21:21:31.247Z,7.80
2022-11-22T21:24:00.932Z,7.58
2022-11-22T21:26:29.197Z,7.39
2022-11-22T21:28:57.776Z,7.22
2022-11-22T21:31:25.766Z,7.07
2022-11-22T21:33:53.957Z,6.92
2022-11-22T21:36:22.382Z,6.77
2022-11-22T21:38:50.161Z,6.62
2022-11-22T21:44:09.295Z,6.75
2022-11-22T21:46:37.125Z,8.26
2022-11-22T21:49:05.013Z,9.65
2022-11-22T21:51:32.845Z,10.29
2022-11-22T21:54:01.884Z,9.75
2022-11-22T21:56:30.103Z,9.07
2022-11-22T21:58:57.987Z,8.56
2022-11-22T22:01:25.811Z,8.21
2022-11-22T22:03:53.750Z,7.94
2022-11-22T22:06:21.983Z,7.71
2022-11-22T22:08:49.962Z,7.51
2022-11-22T22:11:18.018Z,7.35
2022-11-22T22:13:45.875Z,7.19
2022-11-22T22:16:18.934Z,7.04
2022-11-22T22:18:47.321Z,7.11
2022-11-22T22:21:16.880Z,8.26
2022-11-22T22:23:45.129Z,9.62
2022-11-22T22:26:15.535Z,10.24
2022-11-22T22:28:45.165Z,9.70
2022-11-22T22:31:22.206Z,9.04
2022-11-22T22:33:53.787Z,8.53
2022-11-22T22:36:22.030Z,8.20
2022-11-22T22:38:50.168Z,7.94
2022-11-22T22:41:18.667Z,7.71
2022-11-22T22:43:48.347Z,7.51
2022-11-22T22:46:21.781Z,7.32
2022-11-22T22:48:50.891Z,7.15
2022-11-22T22:51:30.688Z,7.01
2022-11-22T22:54:01.144Z,6.88
2022-11-22T22:56:30.952Z,6.77
2022-11-22T22:59:00.810Z,6.85
2022-11-22T23:01:31.022Z,8.09
2022-11-22T23:04:00.984Z,9.56
2022-11-22T23:06:34.758Z,10.20
2022-11-22T23:09:04.688Z,9.62
2022-11-22T23:11:52.491Z,8.90
2022-11-22T23:14:22.936Z,8.31
2022-11-22T23:16:55.965Z,7.94
2022-11-22T23:19:26.509Z,7.66
2022-11-22T23:21:54.904Z,7.42
2022-11-22T23:24:22.849Z,7.22
2022-11-22T23:26:50.810Z,7.06
2022-11-22T23:29:18.713Z,6.91
2022-11-22T23:31:46.510Z,6.76
2022-11-22T23:34:14.594Z,6.63
2022-11-22T23:36:42.342Z,6.49
2022-11-22T23:39:10.302Z,6.37
2022-11-22T23:41:38.075Z,6.26
2022-11-22T23:44:06.196Z,6.38
2022-11-22T23:46:34.200Z,7.71
2022-11-22T23:49:03.719Z,9.18
2022-11-22T23:51:32.748Z,9.97
2022-11-22T23:54:02.695Z,9.45
2022-11-22T23:56:31.666Z,8.73
2022-11-22T23:59:00.004Z,8.19
